Time;durP1;ratioP1;P1;durP2;ratioP2;P2;SDS_P1;SDS_P2;PMS_P1;PMS_P2;Temp;Humidity;BMP_temperature;BMP_pressure;BME280_temperature;BME280_humidity;BME280_pressure;Samples;Min_cycle;Max_cycle;Signal;HPM_P1;HPM_P2
2022/01/24 00:02:14;;;;;;;7.93;5.53;;;;;;;;;;5068579;28;20661;-56
2022/01/24 00:04:40;;;;;;;6.47;5.80;;;;;;;;;;5067187;28;20254;-56
2022/01/24 00:07:07;;;;;;;6.23;5.27;;;;;;;;;;5062931;28;20769;-56
2022/01/24 00:09:33;;;;;;;6.20;5.43;;;;;;;;;;5066427;28;20673;-56
2022/01/24 00:12:12;;;;;;;5.60;5.00;;;;;;;;;;5081678;28;20551;-56
2022/01/24 00:15:06;;;;;;;6.03;4.67;;;;;;;;;;5079220;28;20440;-56
2022/01/24 00:17:36;;;;;;;6.90;4.90;;;;;;;;;;5080088;28;20200;-56
2022/01/24 00:28:06;;;;;;;4.53;4.13;;;;;;;;;;5085318;28;20183;-56
2022/01/24 00:30:32;;;;;;;4.93;4.40;;;;;;;;;;5084348;28;20409;-56
2022/01/24 00:32:58;;;;;;;5.43;4.93;;;;;;;;;;5064846;28;20187;-56
2022/01/24 00:35:25;;;;;;;4.67;3.97;;;;;;;;;;5086230;28;20279;-56
2022/01/24 00:37:51;;;;;;;5.93;4.80;;;;;;;;;;5079759;28;20654;-56
2022/01/24 00:40:18;;;;;;;4.73;4.23;;;;;;;;;;5079731;28;20210;-56
2022/01/24 00:42:56;;;;;;;4.67;3.87;;;;;;;;;;5063579;28;20171;-55
2022/01/24 00:53:29;;;;;;;5.23;4.27;;;;;;;;;;5084647;28;20202;-56
2022/01/24 00:55:55;;;;;;;4.77;4.17;;;;;;;;;;5082447;28;20235;-56
2022/01/24 00:58:24;;;;;;;4.67;3.53;;;;;;;;;;5063782;28;20198;-56
2022/01/24 01:00:51;;;;;;;4.43;3.87;;;;;;;;;;5062392;28;20208;-56
2022/01/24 01:03:18;;;;;;;5.80;4.07;;;;;;;;;;5080106;28;20172;-56
2022/01/24 01:19:06;;;;;;;4.47;4.00;;;;;;;;;;5073649;28;20217;-56
2022/01/24 01:21:32;;;;;;;3.50;3.07;;;;;;;;;;5069105;28;20195;-55
2022/01/24 01:23:59;;;;;;;4.00;3.60;;;;;;;;;;5061570;28;20181;-56
2022/01/24 01:29:07;;;;;;;3.33;3.03;;;;;;;;;;5079523;28;20183;-56
2022/01/24 01:34:57;;;;;;;3.57;3.27;;;;;;;;;;5063985;28;20655;-56
2022/01/24 01:37:12;;;;;;;3.40;3.10;;;;;;;;;;5074188;28;20651;-55
2022/01/24 01:55:47;;;;;;;3.63;3.33;;;;;;;;;;5086197;28;20226;-56
2022/01/24 01:58:15;;;;;;;3.17;2.80;;;;;;;;;;5080909;28;20561;-56
2022/01/24 02:00:45;;;;;;;3.67;3.10;;;;;;;;;;5081310;28;20199;-56
2022/01/24 02:03:12;;;;;;;3.07;2.83;;;;;;;;;;5064784;28;20191;-56
2022/01/24 02:05:39;;;;;;;3.20;2.90;;;;;;;;;;5067419;28;20180;-56
2022/01/24 02:08:10;;;;;;;3.70;3.10;;;;;;;;;;5060817;28;20289;-56
2022/01/24 02:10:42;;;;;;;3.40;2.80;;;;;;;;;;5082784;28;20202;-56
2022/01/24 02:13:08;;;;;;;3.20;2.83;;;;;;;;;;5067140;28;20648;-56
2022/01/24 02:21:26;;;;;;;2.83;2.53;;;;;;;;;;5084569;28;20199;-56
2022/01/24 02:24:00;;;;;;;3.67;3.27;;;;;;;;;;5077056;28;20176;-56
2022/01/24 02:26:29;;;;;;;2.97;2.70;;;;;;;;;;5086816;28;20168;-57
2022/01/24 02:31:39;;;;;;;3.57;3.27;;;;;;;;;;5080610;28;20742;-56
2022/01/24 02:34:18;;;;;;;3.17;2.87;;;;;;;;;;5091204;28;20252;-56
2022/01/24 02:36:45;;;;;;;3.10;2.80;;;;;;;;;;5088891;28;20190;-56
2022/01/24 02:50:27;;;;;;;3.27;2.97;;;;;;;;;;5079004;28;20269;-56
2022/01/24 02:52:56;;;;;;;3.87;2.63;;;;;;;;;;5080219;28;20635;-55
2022/01/24 02:55:23;;;;;;;3.30;2.80;;;;;;;;;;5079205;28;20601;-56
2022/01/24 02:57:49;;;;;;;3.37;3.07;;;;;;;;;;5080331;28;20694;-56
2022/01/24 03:00:21;;;;;;;3.30;2.87;;;;;;;;;;5090859;28;20256;-56
2022/01/24 03:02:47;;;;;;;3.10;2.80;;;;;;;;;;5067904;28;20421;-56
2022/01/24 03:05:13;;;;;;;3.17;2.87;;;;;;;;;;5070253;28;20665;-56
2022/01/24 03:07:39;;;;;;;2.67;2.47;;;;;;;;;;5059993;28;20263;-56
2022/01/24 03:10:14;;;;;;;2.77;2.57;;;;;;;;;;5081711;28;20184;-56
2022/01/24 03:15:07;;;;;;;3.60;3.27;;;;;;;;;;5078129;28;20273;-56
2022/01/24 03:17:39;;;;;;;2.90;2.70;;;;;;;;;;5082114;28;20204;-56
2022/01/24 03:20:11;;;;;;;4.10;3.13;;;;;;;;;;5070993;28;20175;-56
2022/01/24 03:22:37;;;;;;;2.90;2.60;;;;;;;;;;5069856;28;20184;-56
2022/01/24 03:25:07;;;;;;;3.03;2.73;;;;;;;;;;5070092;28;20175;-56
2022/01/24 03:27:33;;;;;;;3.50;3.20;;;;;;;;;;5082570;28;20686;-56
2022/01/24 03:29:59;;;;;;;2.90;2.60;;;;;;;;;;5070396;28;20184;-56
2022/01/24 03:32:28;;;;;;;3.00;2.70;;;;;;;;;;5063371;28;20183;-56
2022/01/24 03:34:54;;;;;;;2.97;2.67;;;;;;;;;;5070030;28;20634;-56
2022/01/24 03:37:25;;;;;;;3.67;2.97;;;;;;;;;;5063373;28;20191;-56
2022/01/24 03:39:52;;;;;;;2.97;2.73;;;;;;;;;;5063209;28;20232;-56
2022/01/24 03:42:27;;;;;;;3.03;2.73;;;;;;;;;;5066984;28;20216;-56
2022/01/24 03:44:58;;;;;;;3.30;3.00;;;;;;;;;;5068398;28;20183;-56
2022/01/24 03:47:42;;;;;;;3.00;2.80;;;;;;;;;;5067441;28;20195;-56
2022/01/24 03:50:15;;;;;;;2.60;2.40;;;;;;;;;;5082616;28;20184;-56
2022/01/24 03:52:41;;;;;;;3.30;3.00;;;;;;;;;;5069324;28;20676;-56
2022/01/24 03:55:08;;;;;;;3.17;2.87;;;;;;;;;;5070835;28;20220;-56
2022/01/24 03:57:34;;;;;;;2.80;2.57;;;;;;;;;;5080918;28;20197;-56
2022/01/24 04:00:00;;;;;;;3.30;3.00;;;;;;;;;;5069626;28;20271;-56
2022/01/24 04:02:27;;;;;;;2.80;2.60;;;;;;;;;;5068664;28;20176;-56
2022/01/24 04:04:54;;;;;;;2.73;2.13;;;;;;;;;;5087234;28;20229;-56
2022/01/24 04:07:23;;;;;;;2.80;2.50;;;;;;;;;;5066863;28;20198;-56
2022/01/24 04:09:53;;;;;;;3.10;2.80;;;;;;;;;;5083138;28;20270;-56
2022/01/24 04:12:23;;;;;;;2.47;2.27;;;;;;;;;;5083163;28;20764;-56
2022/01/24 04:22:35;;;;;;;2.87;2.23;;;;;;;;;;5060230;28;20211;-56
2022/01/24 04:25:06;;;;;;;2.40;2.20;;;;;;;;;;5065448;28;20227;-56
2022/01/24 04:27:38;;;;;;;2.43;2.23;;;;;;;;;;5080596;28;20539;-56
2022/01/24 04:30:04;;;;;;;2.40;2.20;;;;;;;;;;5060533;28;20171;-56
2022/01/24 04:32:30;;;;;;;2.30;2.10;;;;;;;;;;5085056;28;20213;-56
2022/01/24 04:34:56;;;;;;;2.90;2.60;;;;;;;;;;5069394;28;20221;-56
2022/01/24 04:37:25;;;;;;;2.53;2.33;;;;;;;;;;5062668;28;20576;-56
2022/01/24 04:39:51;;;;;;;2.60;2.20;;;;;;;;;;5084808;28;20606;-56
2022/01/24 04:42:33;;;;;;;2.90;2.30;;;;;;;;;;5057719;28;20549;-56
2022/01/24 04:56:09;;;;;;;2.13;1.93;;;;;;;;;;5044790;28;20230;-56
2022/01/24 04:58:35;;;;;;;2.73;2.33;;;;;;;;;;5065645;28;20191;-56
2022/01/24 05:01:01;;;;;;;2.90;2.27;;;;;;;;;;5082434;28;20203;-57
2022/01/24 05:03:27;;;;;;;2.50;2.30;;;;;;;;;;5058526;28;20183;-56
2022/01/24 05:05:53;;;;;;;2.97;2.40;;;;;;;;;;5080312;28;20175;-56
2022/01/24 05:08:20;;;;;;;2.60;2.40;;;;;;;;;;5062550;28;20187;-56
2022/01/24 05:11:09;;;;;;;2.33;2.13;;;;;;;;;;5080976;28;20172;-56
2022/01/24 05:24:36;;;;;;;2.10;1.90;;;;;;;;;;5073508;28;20173;-56
2022/01/24 05:27:06;;;;;;;2.60;2.40;;;;;;;;;;5052354;28;20195;-56
2022/01/24 05:29:35;;;;;;;2.13;2.03;;;;;;;;;;5072984;28;20187;-56
2022/01/24 05:32:01;;;;;;;2.20;2.00;;;;;;;;;;5057729;28;20218;-56
2022/01/24 05:34:27;;;;;;;2.67;2.47;;;;;;;;;;5059892;28;20206;-56
2022/01/24 05:36:54;;;;;;;2.40;2.20;;;;;;;;;;5076639;28;20748;-56
2022/01/24 05:39:20;;;;;;;2.33;2.10;;;;;;;;;;5064732;28;20206;-56
2022/01/24 05:41:52;;;;;;;2.33;2.13;;;;;;;;;;5080289;28;20257;-57
2022/01/24 05:44:19;;;;;;;3.57;2.30;;;;;;;;;;5055682;28;20723;-56
2022/01/24 05:46:45;;;;;;;2.20;2.00;;;;;;;;;;5061798;28;20241;-56
2022/01/24 05:49:18;;;;;;;2.40;2.20;;;;;;;;;;5056434;28;20168;-56
2022/01/24 05:51:44;;;;;;;2.30;2.10;;;;;;;;;;5078681;28;20183;-56
2022/01/24 05:54:11;;;;;;;2.47;2.27;;;;;;;;;;5063161;28;20177;-56
2022/01/24 05:56:40;;;;;;;2.60;2.40;;;;;;;;;;5082175;28;20452;-56
2022/01/24 05:59:07;;;;;;;2.23;2.03;;;;;;;;;;5071202;28;20629;-56
2022/01/24 06:01:33;;;;;;;2.40;2.20;;;;;;;;;;5065487;28;20195;-56
2022/01/24 06:04:02;;;;;;;2.60;2.40;;;;;;;;;;5088181;28;20258;-56
2022/01/24 06:06:33;;;;;;;2.37;2.17;;;;;;;;;;5064639;28;20189;-56
2022/01/24 06:08:59;;;;;;;3.80;2.50;;;;;;;;;;5065239;28;20511;-55
2022/01/24 06:11:27;;;;;;;2.50;2.30;;;;;;;;;;5066951;28;20187;-56
2022/01/24 06:13:57;;;;;;;2.53;2.33;;;;;;;;;;5087893;28;20192;-56
2022/01/24 06:16:23;;;;;;;2.13;1.93;;;;;;;;;;5074472;28;20190;-56
2022/01/24 06:18:50;;;;;;;4.40;2.07;;;;;;;;;;5095014;28;20726;-56
2022/01/24 06:21:19;;;;;;;2.20;2.00;;;;;;;;;;5088975;28;20236;-56
2022/01/24 06:23:51;;;;;;;2.37;2.17;;;;;;;;;;5067496;28;20677;-56
2022/01/24 06:26:17;;;;;;;2.87;2.20;;;;;;;;;;5069307;28;20188;-57
2022/01/24 06:28:46;;;;;;;2.30;2.10;;;;;;;;;;5069954;28;20714;-56
2022/01/24 06:31:15;;;;;;;2.43;2.23;;;;;;;;;;5069556;28;20208;-56
2022/01/24 06:33:41;;;;;;;2.60;2.40;;;;;;;;;;5070373;28;20187;-56
2022/01/24 06:36:07;;;;;;;2.87;2.50;;;;;;;;;;5095037;28;20218;-56
2022/01/24 06:38:33;;;;;;;2.77;2.50;;;;;;;;;;5084826;28;20192;-56
2022/01/24 06:41:00;;;;;;;2.97;2.77;;;;;;;;;;5068005;28;20325;-54
2022/01/24 06:43:26;;;;;;;4.47;2.33;;;;;;;;;;5072767;28;20177;-53
2022/01/24 06:45:52;;;;;;;3.40;2.30;;;;;;;;;;5088153;28;20168;-53
2022/01/24 06:48:19;;;;;;;2.93;2.70;;;;;;;;;;5093962;28;20697;-53
2022/01/24 06:50:45;;;;;;;3.53;2.50;;;;;;;;;;5086869;28;20264;-53
2022/01/24 06:53:12;;;;;;;2.60;2.40;;;;;;;;;;5064968;28;20176;-53
2022/01/24 06:55:38;;;;;;;3.10;2.80;;;;;;;;;;5076464;28;20247;-53
2022/01/24 06:58:04;;;;;;;2.63;2.40;;;;;;;;;;5070736;28;20203;-53
2022/01/24 07:00:31;;;;;;;3.40;2.73;;;;;;;;;;5088425;28;20227;-53
2022/01/24 07:02:58;;;;;;;2.20;2.00;;;;;;;;;;5086596;28;20175;-53
2022/01/24 07:05:25;;;;;;;3.43;2.50;;;;;;;;;;5056566;28;20275;-53
2022/01/24 07:07:51;;;;;;;2.83;2.33;;;;;;;;;;5068732;28;20600;-53
2022/01/24 07:10:18;;;;;;;4.20;2.90;;;;;;;;;;5089606;28;20584;-53
2022/01/24 07:12:46;;;;;;;2.73;2.37;;;;;;;;;;5063532;28;20272;-53
2022/01/24 07:15:16;;;;;;;2.40;2.20;;;;;;;;;;5077837;28;20217;-53
2022/01/24 07:20:11;;;;;;;2.07;1.93;;;;;;;;;;5077388;28;20675;-53
2022/01/24 07:22:38;;;;;;;2.73;2.20;;;;;;;;;;5063037;28;20635;-53
2022/01/24 07:25:04;;;;;;;2.53;2.33;;;;;;;;;;5050824;28;20167;-53
2022/01/24 07:27:31;;;;;;;2.53;2.33;;;;;;;;;;5085911;28;20181;-53
2022/01/24 07:29:58;;;;;;;2.83;2.50;;;;;;;;;;5079318;28;20168;-53
2022/01/24 07:32:24;;;;;;;3.60;2.50;;;;;;;;;;5085822;28;20217;-53
2022/01/24 07:34:51;;;;;;;5.43;2.70;;;;;;;;;;5062014;28;20187;-53
2022/01/24 07:37:17;;;;;;;5.37;2.37;;;;;;;;;;5061615;28;20248;-53
2022/01/24 07:39:43;;;;;;;2.63;2.20;;;;;;;;;;5065228;28;20183;-53
2022/01/24 07:42:26;;;;;;;2.53;2.27;;;;;;;;;;5085739;28;20282;-53
2022/01/24 07:44:53;;;;;;;4.43;2.40;;;;;;;;;;5060148;28;20182;-53
2022/01/24 07:47:19;;;;;;;2.67;2.40;;;;;;;;;;5083374;28;20612;-53
2022/01/24 07:49:45;;;;;;;4.07;2.63;;;;;;;;;;5066024;28;20207;-54
2022/01/24 07:52:12;;;;;;;2.53;2.30;;;;;;;;;;5083196;28;20190;-54
2022/01/24 07:54:38;;;;;;;3.13;2.83;;;;;;;;;;5088051;28;20172;-54
2022/01/24 07:57:04;;;;;;;2.83;2.63;;;;;;;;;;5073333;28;20192;-54
2022/01/24 07:59:30;;;;;;;3.13;2.23;;;;;;;;;;5074462;28;20179;-54
2022/01/24 08:01:57;;;;;;;3.53;2.40;;;;;;;;;;5080023;28;20557;-54
2022/01/24 08:04:23;;;;;;;2.87;2.50;;;;;;;;;;5064435;28;20640;-54
2022/01/24 08:06:49;;;;;;;2.20;2.00;;;;;;;;;;5086000;28;20179;-54
2022/01/24 08:09:16;;;;;;;3.03;2.30;;;;;;;;;;5066126;28;20179;-54
2022/01/24 08:11:43;;;;;;;3.93;2.40;;;;;;;;;;5057121;28;20190;-54
2022/01/24 08:14:09;;;;;;;7.27;3.00;;;;;;;;;;5077378;28;20184;-54
2022/01/24 08:16:37;;;;;;;5.70;2.37;;;;;;;;;;5065970;28;20182;-54
2022/01/24 08:19:03;;;;;;;2.50;2.30;;;;;;;;;;5079613;28;20187;-54
2022/01/24 08:21:30;;;;;;;2.70;2.30;;;;;;;;;;5079214;28;20243;-53
2022/01/24 08:23:56;;;;;;;4.40;2.97;;;;;;;;;;5091499;28;20210;-53
2022/01/24 08:26:22;;;;;;;6.73;2.60;;;;;;;;;;5083288;28;20176;-54
2022/01/24 08:28:48;;;;;;;3.23;2.60;;;;;;;;;;5088199;28;20635;-54
2022/01/24 08:31:15;;;;;;;4.97;2.60;;;;;;;;;;5068861;28;20741;-54
2022/01/24 08:33:43;;;;;;;3.60;2.77;;;;;;;;;;5083418;28;20238;-53
2022/01/24 08:36:09;;;;;;;2.97;2.67;;;;;;;;;;5068353;28;20300;-53
2022/01/24 08:38:36;;;;;;;3.60;2.37;;;;;;;;;;5082890;28;20631;-54
2022/01/24 08:41:09;;;;;;;2.60;2.37;;;;;;;;;;5072478;28;20222;-54
2022/01/24 08:43:39;;;;;;;2.30;2.10;;;;;;;;;;5072721;28;20182;-53
2022/01/24 08:46:06;;;;;;;2.93;2.27;;;;;;;;;;5083469;28;20638;-54
2022/01/24 08:48:32;;;;;;;1.93;1.83;;;;;;;;;;5060985;28;20613;-54
2022/01/24 08:51:02;;;;;;;2.80;2.43;;;;;;;;;;5082930;28;20587;-54
2022/01/24 08:53:34;;;;;;;3.10;2.50;;;;;;;;;;5068751;28;20199;-54
2022/01/24 08:56:05;;;;;;;3.43;2.67;;;;;;;;;;5068362;28;20243;-54
2022/01/24 08:58:32;;;;;;;3.73;2.70;;;;;;;;;;5064787;28;20175;-54
2022/01/24 09:00:58;;;;;;;2.87;2.40;;;;;;;;;;5061456;28;20295;-54
2022/01/24 09:03:29;;;;;;;6.23;2.83;;;;;;;;;;5065444;28;20304;-54
2022/01/24 09:05:57;;;;;;;2.90;2.63;;;;;;;;;;5082846;28;20182;-54
2022/01/24 09:08:23;;;;;;;2.70;2.50;;;;;;;;;;5087863;28;20295;-54
2022/01/24 09:10:51;;;;;;;4.00;2.33;;;;;;;;;;5054980;28;20650;-54
2022/01/24 09:13:19;;;;;;;3.67;2.67;;;;;;;;;;5062509;28;21532;-54
2022/01/24 09:15:45;;;;;;;3.33;2.50;;;;;;;;;;5085708;28;20219;-54
2022/01/24 09:18:12;;;;;;;3.10;2.80;;;;;;;;;;5087443;28;20700;-54
2022/01/24 09:20:39;;;;;;;3.23;2.80;;;;;;;;;;5073374;28;20548;-54
2022/01/24 09:23:06;;;;;;;2.67;2.47;;;;;;;;;;5082493;28;20169;-54
2022/01/24 09:25:33;;;;;;;5.30;2.97;;;;;;;;;;5085678;28;20172;-54
2022/01/24 09:27:59;;;;;;;6.30;2.43;;;;;;;;;;5081454;28;20551;-54
2022/01/24 09:30:26;;;;;;;3.80;2.40;;;;;;;;;;5078229;28;20226;-54
2022/01/24 09:32:52;;;;;;;3.20;2.63;;;;;;;;;;5074013;28;20643;-52
2022/01/24 09:35:20;;;;;;;2.63;2.43;;;;;;;;;;5081982;28;20657;-53
2022/01/24 09:37:47;;;;;;;3.33;2.83;;;;;;;;;;5086784;28;20178;-53
2022/01/24 09:40:15;;;;;;;2.97;2.57;;;;;;;;;;5083757;28;20635;-53
2022/01/24 09:42:42;;;;;;;4.60;2.83;;;;;;;;;;5067845;28;20187;-53
2022/01/24 09:45:10;;;;;;;2.87;2.63;;;;;;;;;;5067686;28;20750;-56
2022/01/24 09:47:37;;;;;;;2.90;2.60;;;;;;;;;;5078846;28;20172;-56
2022/01/24 09:50:04;;;;;;;4.13;2.77;;;;;;;;;;5064443;28;20180;-55
2022/01/24 09:52:31;;;;;;;4.00;2.37;;;;;;;;;;5061943;28;20188;-55
2022/01/24 09:54:57;;;;;;;3.07;2.77;;;;;;;;;;5064422;28;20739;-55
2022/01/24 09:57:24;;;;;;;2.50;2.30;;;;;;;;;;5073455;28;20287;-56
2022/01/24 09:59:50;;;;;;;3.37;2.80;;;;;;;;;;5067713;28;20658;-56
2022/01/24 10:02:16;;;;;;;3.00;2.70;;;;;;;;;;5081077;28;20604;-55
2022/01/24 10:04:42;;;;;;;2.73;2.53;;;;;;;;;;5077486;28;20298;-56
2022/01/24 10:07:11;;;;;;;3.23;2.93;;;;;;;;;;5080172;28;20238;-55
2022/01/24 10:09:45;;;;;;;2.90;2.63;;;;;;;;;;5068848;28;20179;-56
2022/01/24 10:12:17;;;;;;;4.07;2.77;;;;;;;;;;5088016;28;20218;-56
2022/01/24 10:17:31;;;;;;;2.80;2.60;;;;;;;;;;5077919;28;20246;-56
2022/01/24 10:19:58;;;;;;;3.17;2.70;;;;;;;;;;5065522;28;20184;-56
2022/01/24 10:22:25;;;;;;;3.43;3.07;;;;;;;;;;5085718;28;20225;-56
2022/01/24 10:24:54;;;;;;;3.10;2.80;;;;;;;;;;5063356;28;20175;-56
2022/01/24 10:27:25;;;;;;;3.57;2.77;;;;;;;;;;5081306;28;20245;-56
2022/01/24 10:29:56;;;;;;;3.37;3.07;;;;;;;;;;5073131;28;20703;-56
2022/01/24 10:32:28;;;;;;;3.13;2.83;;;;;;;;;;5065681;28;20229;-56
2022/01/24 10:34:55;;;;;;;2.87;2.57;;;;;;;;;;5066777;28;20185;-56
2022/01/24 10:37:22;;;;;;;3.17;2.87;;;;;;;;;;5085916;28;20626;-56
2022/01/24 10:40:09;;;;;;;3.30;3.00;;;;;;;;;;5090272;28;20563;-55
2022/01/24 10:42:52;;;;;;;3.27;2.97;;;;;;;;;;5074910;28;20214;-54
2022/01/24 10:45:21;;;;;;;3.33;3.03;;;;;;;;;;5067540;28;20180;-55
2022/01/24 10:47:50;;;;;;;3.13;2.87;;;;;;;;;;5064427;28;20180;-55
2022/01/24 10:50:23;;;;;;;3.27;2.97;;;;;;;;;;5077848;28;20183;-55
2022/01/24 10:52:50;;;;;;;6.03;2.83;;;;;;;;;;5075959;28;20502;-55
2022/01/24 10:55:21;;;;;;;3.67;2.90;;;;;;;;;;5077863;28;20219;-55
2022/01/24 10:57:51;;;;;;;2.97;2.60;;;;;;;;;;5088118;28;20196;-54
2022/01/24 11:00:20;;;;;;;3.67;3.20;;;;;;;;;;5068367;28;20262;-55
2022/01/24 11:02:49;;;;;;;4.27;3.40;;;;;;;;;;5067097;28;20180;-54
2022/01/24 11:05:16;;;;;;;5.73;3.90;;;;;;;;;;5076041;28;20186;-55
2022/01/24 11:07:50;;;;;;;3.77;3.33;;;;;;;;;;5071320;28;20183;-54
2022/01/24 11:10:16;;;;;;;3.70;3.30;;;;;;;;;;5087905;28;20260;-54
2022/01/24 11:12:43;;;;;;;3.70;3.07;;;;;;;;;;5051512;28;20241;-54
2022/01/24 11:15:12;;;;;;;3.90;3.50;;;;;;;;;;5067096;28;20257;-54
2022/01/24 11:17:40;;;;;;;3.93;3.57;;;;;;;;;;5080965;28;20644;-55
2022/01/24 11:20:08;;;;;;;3.70;3.40;;;;;;;;;;5066545;28;20646;-56
2022/01/24 11:22:40;;;;;;;3.47;3.17;;;;;;;;;;5088499;28;20311;-56
2022/01/24 11:25:08;;;;;;;6.10;3.60;;;;;;;;;;5076171;28;20189;-56
2022/01/24 11:27:35;;;;;;;3.20;2.90;;;;;;;;;;5067646;28;20246;-56
2022/01/24 11:30:04;;;;;;;3.40;3.10;;;;;;;;;;5088633;28;20268;-56
2022/01/24 11:32:44;;;;;;;3.07;2.63;;;;;;;;;;5064861;28;20431;-56
2022/01/24 11:35:10;;;;;;;4.47;3.20;;;;;;;;;;5071016;28;20179;-56
2022/01/24 11:37:36;;;;;;;3.47;3.17;;;;;;;;;;5087266;28;20179;-56
2022/01/24 11:40:25;;;;;;;2.90;2.70;;;;;;;;;;5084504;28;20177;-56
2022/01/24 11:42:52;;;;;;;3.70;3.00;;;;;;;;;;5056585;28;20557;-56
2022/01/24 11:45:44;;;;;;;3.93;2.97;;;;;;;;;;5087323;28;20183;-56
2022/01/24 11:48:18;;;;;;;4.43;3.47;;;;;;;;;;5086425;28;20608;-56
2022/01/24 11:50:54;;;;;;;4.20;3.80;;;;;;;;;;5065784;28;20172;-56
2022/01/24 11:53:22;;;;;;;3.40;3.10;;;;;;;;;;5069690;28;20228;-56
2022/01/24 11:55:48;;;;;;;5.80;3.73;;;;;;;;;;5064895;28;20249;-56
2022/01/24 11:58:22;;;;;;;7.13;3.50;;;;;;;;;;5085993;28;20168;-56
2022/01/24 12:00:52;;;;;;;3.30;3.00;;;;;;;;;;5069231;28;20210;-56
2022/01/24 12:03:23;;;;;;;3.97;3.20;;;;;;;;;;5070391;28;20203;-56
2022/01/24 12:05:53;;;;;;;7.03;3.90;;;;;;;;;;5083151;28;20171;-56
2022/01/24 12:08:35;;;;;;;3.27;2.97;;;;;;;;;;5087053;28;20180;-56
2022/01/24 12:11:19;;;;;;;3.33;3.03;;;;;;;;;;5064544;28;20665;-56
2022/01/24 12:13:51;;;;;;;4.30;3.23;;;;;;;;;;5082296;28;20218;-56
2022/01/24 12:16:18;;;;;;;5.13;3.07;;;;;;;;;;5066712;28;20179;-56
2022/01/24 12:18:48;;;;;;;3.50;3.20;;;;;;;;;;5088317;28;20183;-56
2022/01/24 12:21:15;;;;;;;3.37;3.07;;;;;;;;;;5062574;28;20192;-56
2022/01/24 12:23:41;;;;;;;4.67;3.73;;;;;;;;;;5089047;28;20175;-56
2022/01/24 12:26:08;;;;;;;4.00;3.10;;;;;;;;;;5067063;28;20182;-55
2022/01/24 12:28:46;;;;;;;3.07;2.77;;;;;;;;;;5081047;28;20167;-55
2022/01/24 12:31:31;;;;;;;3.33;3.03;;;;;;;;;;5074814;28;20553;-56
2022/01/24 12:34:01;;;;;;;3.93;3.10;;;;;;;;;;5072364;28;20175;-56
2022/01/24 12:36:46;;;;;;;3.73;2.60;;;;;;;;;;5089199;28;20168;-56
2022/01/24 12:39:24;;;;;;;3.40;3.10;;;;;;;;;;5057711;28;20573;-55
2022/01/24 12:41:56;;;;;;;3.47;3.17;;;;;;;;;;5064786;28;20225;-56
2022/01/24 12:47:12;;;;;;;3.67;3.37;;;;;;;;;;5078393;28;20587;-55
2022/01/24 12:49:38;;;;;;;4.23;3.70;;;;;;;;;;5067144;28;20219;-55
2022/01/24 12:52:10;;;;;;;4.77;3.70;;;;;;;;;;5082270;28;20661;-56
2022/01/24 12:54:44;;;;;;;4.03;3.37;;;;;;;;;;5085079;28;20209;-55
2022/01/24 12:57:12;;;;;;;4.53;3.90;;;;;;;;;;5063295;28;20667;-55
2022/01/24 12:59:39;;;;;;;4.23;3.83;;;;;;;;;;5058228;28;20232;-55
2022/01/24 13:02:06;;;;;;;5.77;4.20;;;;;;;;;;5057915;28;20235;-55
2022/01/24 13:04:34;;;;;;;4.10;3.10;;;;;;;;;;5034517;28;20180;-55
2022/01/24 13:07:00;;;;;;;4.23;3.83;;;;;;;;;;5058549;28;20566;-55
2022/01/24 13:09:27;;;;;;;4.73;3.37;;;;;;;;;;5048822;28;20183;-56
2022/01/24 13:11:55;;;;;;;5.43;3.70;;;;;;;;;;5066950;28;20189;-55
2022/01/24 13:14:27;;;;;;;4.60;3.10;;;;;;;;;;5042767;28;20181;-55
2022/01/24 13:22:51;;;;;;;6.73;3.67;;;;;;;;;;5050830;28;20216;-56
2022/01/24 13:25:26;;;;;;;3.50;3.20;;;;;;;;;;5027995;28;20949;-55
2022/01/24 13:27:52;;;;;;;3.73;2.77;;;;;;;;;;5050256;28;20194;-56
2022/01/24 13:30:36;;;;;;;4.23;3.83;;;;;;;;;;5043938;28;20177;-55
2022/01/24 13:33:03;;;;;;;3.83;3.17;;;;;;;;;;5038680;28;20261;-56
2022/01/24 13:35:31;;;;;;;3.27;2.97;;;;;;;;;;5042450;28;20184;-55
2022/01/24 13:37:58;;;;;;;3.47;3.17;;;;;;;;;;5059512;28;20172;-55
2022/01/24 13:41:05;;;;;;;3.83;2.50;;;;;;;;;;5056548;28;20183;-56
2022/01/24 13:43:50;;;;;;;3.50;3.20;;;;;;;;;;5029130;28;20187;-55
2022/01/24 13:46:19;;;;;;;5.00;3.33;;;;;;;;;;5058870;28;20190;-55
2022/01/24 13:48:47;;;;;;;7.83;3.37;;;;;;;;;;5040367;28;20185;-55
2022/01/24 13:51:18;;;;;;;5.33;3.43;;;;;;;;;;5044596;28;20651;-55
2022/01/24 13:53:46;;;;;;;3.30;3.00;;;;;;;;;;5042395;28;20363;-55
2022/01/24 13:56:17;;;;;;;3.80;2.97;;;;;;;;;;5078876;28;20223;-55
2022/01/24 13:58:43;;;;;;;5.17;2.87;;;;;;;;;;5086863;28;20176;-56
2022/01/24 14:01:14;;;;;;;5.10;3.50;;;;;;;;;;5066977;28;20198;-55
2022/01/24 14:03:40;;;;;;;3.27;2.97;;;;;;;;;;5068574;28;20180;-56
2022/01/24 14:06:16;;;;;;;3.00;2.70;;;;;;;;;;5094236;28;20677;-55
2022/01/24 14:08:43;;;;;;;4.00;3.00;;;;;;;;;;5077256;28;20658;-55
2022/01/24 14:11:18;;;;;;;3.63;3.00;;;;;;;;;;5088349;28;20179;-56
2022/01/24 14:14:03;;;;;;;6.23;3.03;;;;;;;;;;5061881;28;20190;-56
2022/01/24 14:19:36;;;;;;;3.53;2.90;;;;;;;;;;5091826;28;20722;-56
2022/01/24 14:22:10;;;;;;;3.53;2.93;;;;;;;;;;5093114;28;20198;-55
2022/01/24 14:24:45;;;;;;;4.30;3.53;;;;;;;;;;5087688;28;20176;-54
2022/01/24 14:27:11;;;;;;;3.57;2.70;;;;;;;;;;5085546;28;20186;-55
2022/01/24 14:29:39;;;;;;;3.30;2.77;;;;;;;;;;5072406;28;20184;-53
2022/01/24 14:32:11;;;;;;;2.87;2.57;;;;;;;;;;5077744;28;20179;-53
2022/01/24 14:34:37;;;;;;;4.10;2.50;;;;;;;;;;5090434;28;20182;-53
2022/01/24 14:37:05;;;;;;;3.53;3.00;;;;;;;;;;5096323;28;20235;-54
2022/01/24 14:39:32;;;;;;;4.50;2.87;;;;;;;;;;5091319;28;20191;-54
2022/01/24 14:42:06;;;;;;;3.00;2.80;;;;;;;;;;5101830;28;20195;-54
2022/01/24 14:47:17;;;;;;;5.57;2.90;;;;;;;;;;5088761;28;20179;-54
2022/01/24 14:49:43;;;;;;;2.93;2.73;;;;;;;;;;5073369;28;20188;-54
2022/01/24 14:52:17;;;;;;;3.57;3.00;;;;;;;;;;5077671;28;20220;-54
2022/01/24 14:54:44;;;;;;;4.10;3.13;;;;;;;;;;5076292;28;20904;-54
2022/01/24 14:57:12;;;;;;;4.13;3.53;;;;;;;;;;5059365;28;20205;-55
2022/01/24 14:59:42;;;;;;;5.30;3.53;;;;;;;;;;5098516;28;20547;-55
2022/01/24 15:02:08;;;;;;;4.37;3.30;;;;;;;;;;5054431;28;20667;-54
2022/01/24 15:04:35;;;;;;;7.37;3.70;;;;;;;;;;5081803;28;20259;-54
2022/01/24 15:07:01;;;;;;;3.90;3.17;;;;;;;;;;5087018;28;20203;-54
2022/01/24 15:09:30;;;;;;;3.23;2.93;;;;;;;;;;5065801;28;20192;-55
2022/01/24 15:11:57;;;;;;;4.13;2.90;;;;;;;;;;5083951;28;20260;-55
2022/01/24 15:14:45;;;;;;;3.43;3.10;;;;;;;;;;5070242;28;20183;-55
2022/01/24 15:27:39;;;;;;;3.63;3.30;;;;;;;;;;5077610;28;20298;-55
2022/01/24 15:30:06;;;;;;;3.60;3.30;;;;;;;;;;5070559;28;20191;-55
2022/01/24 15:32:33;;;;;;;4.33;3.37;;;;;;;;;;5084436;28;20523;-55
2022/01/24 15:34:59;;;;;;;4.20;3.80;;;;;;;;;;5073192;28;20184;-54
2022/01/24 15:37:25;;;;;;;3.43;3.13;;;;;;;;;;5094283;28;20236;-54
2022/01/24 15:39:53;;;;;;;9.13;3.57;;;;;;;;;;5092946;28;20216;-54
2022/01/24 15:42:34;;;;;;;3.60;3.30;;;;;;;;;;5082245;28;20195;-54
2022/01/24 15:45:25;;;;;;;3.90;3.53;;;;;;;;;;5076449;28;20706;-54
2022/01/24 15:47:47;;;;;;;4.43;2.97;;;;;;;;;;5079441;28;20183;-54
2022/01/24 15:50:15;;;;;;;4.70;3.73;;;;;;;;;;5085144;28;20179;-54
2022/01/24 15:52:42;;;;;;;5.40;3.70;;;;;;;;;;5081385;28;20192;-55
2022/01/24 15:55:10;;;;;;;4.00;3.30;;;;;;;;;;5075398;28;20216;-54
2022/01/24 15:57:41;;;;;;;5.83;4.70;;;;;;;;;;5064104;28;20227;-55
2022/01/24 16:00:15;;;;;;;4.40;3.80;;;;;;;;;;5066093;28;20192;-55
2022/01/24 16:02:43;;;;;;;7.27;4.30;;;;;;;;;;5062504;28;20211;-54
2022/01/24 16:05:13;;;;;;;4.63;4.23;;;;;;;;;;5091570;28;20201;-55
2022/01/24 16:07:39;;;;;;;4.67;4.00;;;;;;;;;;5072424;28;20187;-54
2022/01/24 16:10:13;;;;;;;6.37;4.23;;;;;;;;;;5067651;28;20655;-55
2022/01/24 16:12:43;;;;;;;4.83;4.00;;;;;;;;;;5071613;28;20184;-55
2022/01/24 16:15:10;;;;;;;7.47;4.50;;;;;;;;;;5071153;28;20255;-55
2022/01/24 16:17:36;;;;;;;4.23;3.83;;;;;;;;;;5075399;28;20176;-55
2022/01/24 16:20:11;;;;;;;4.27;3.87;;;;;;;;;;5086127;28;20829;-55
2022/01/24 16:23:01;;;;;;;5.87;4.30;;;;;;;;;;5070514;28;20215;-55
2022/01/24 16:25:34;;;;;;;5.27;3.70;;;;;;;;;;5085097;28;20175;-55
2022/01/24 16:28:12;;;;;;;4.50;3.60;;;;;;;;;;5076838;28;20234;-55
2022/01/24 16:30:39;;;;;;;9.73;3.90;;;;;;;;;;5066164;28;20187;-54
2022/01/24 16:33:06;;;;;;;4.53;3.90;;;;;;;;;;5081590;28;20192;-55
2022/01/24 16:35:32;;;;;;;5.40;3.97;;;;;;;;;;5085532;28;20176;-55
2022/01/24 16:38:00;;;;;;;4.63;4.13;;;;;;;;;;5066898;28;20180;-56
2022/01/24 16:40:33;;;;;;;4.87;4.10;;;;;;;;;;5067376;28;20213;-57
2022/01/24 16:48:31;;;;;;;4.83;4.37;;;;;;;;;;5089039;28;20187;-55
2022/01/24 16:50:58;;;;;;;5.23;3.63;;;;;;;;;;5094189;28;20631;-55
2022/01/24 16:53:25;;;;;;;5.07;4.30;;;;;;;;;;5070227;28;20188;-56
2022/01/24 16:55:52;;;;;;;4.97;4.13;;;;;;;;;;5064765;28;20223;-56
2022/01/24 16:58:18;;;;;;;4.63;3.83;;;;;;;;;;5073470;28;20181;-57
2022/01/24 17:00:47;;;;;;;4.77;4.30;;;;;;;;;;5071701;28;20187;-57
2022/01/24 17:03:13;;;;;;;5.73;4.70;;;;;;;;;;5069790;28;20172;-57
2022/01/24 17:05:41;;;;;;;4.83;4.33;;;;;;;;;;5072682;28;20178;-56
2022/01/24 17:08:08;;;;;;;8.77;4.50;;;;;;;;;;5071202;28;20176;-56
2022/01/24 17:10:34;;;;;;;5.07;4.63;;;;;;;;;;5056345;28;20271;-57
2022/01/24 17:13:04;;;;;;;6.00;4.20;;;;;;;;;;5070533;28;20658;-58
2022/01/24 17:15:30;;;;;;;13.10;4.60;;;;;;;;;;5087420;28;20186;-57